Fountain, Illinois
Current Conditions -  °F | °C
As of 8:47 PM on Wednesday 26 Nov 2014 (Local Time) from KCPS Reporting Station
Haze Haze  
Wind Chill: 34°   Ceiling: 1200
Heat Index: 34°   Visibility: 2mi
Dew Point: 32°   Wind: 0mph
Humidity: 93%   Direction: NA
Pressure: 30.09"   Gusts: NA
Location:  38.2838°N, 90.3044°W
Report Text: KCPS 270247Z 00000KT 2SM BR BKN012 OVC016 01/00 A3009 RMK AO2 UPB37E46SNE27 P0001
Loading
Personal Weather Stations






























Interactive Weather Map New forecast layout! Learn more

10-Day Weather Forecast

Advertisements
Track Severe Weather on mobile